Time;durP1;ratioP1;P1;durP2;ratioP2;P2;SDS_P1;SDS_P2;PMS_P1;PMS_P2;Temp;Humidity;BMP_temperature;BMP_pressure;BME280_temperature;BME280_humidity;BME280_pressure;Samples;Min_cycle;Max_cycle;Signal;HPM_P1;HPM_P2
2022/03/09 00:02:20;;;;;;;83.10;43.35;;;0.30;99.90;;;;;;2602798;54;21174;31
2022/03/09 00:04:57;;;;;;;80.53;41.30;;;0.30;99.90;;;;;;2602952;54;20149;31
2022/03/09 00:07:32;;;;;;;;;;;0.30;99.90;;;;;;2621646;46;20030;31
2022/03/09 00:10:09;;;;;;;76.68;38.25;;;0.30;99.90;;;;;;2701383;39;20378;31
2022/03/09 00:12:46;;;;;;;103.90;50.35;;;0.30;99.90;;;;;;2621043;46;22386;31
2022/03/09 00:15:23;;;;;;;78.13;39.72;;;0.20;99.90;;;;;;2602705;54;20090;31
2022/03/09 00:17:57;;;;;;;;;;;0.20;99.90;;;;;;2602800;54;20795;31
2022/03/09 00:20:35;;;;;;;81.82;42.85;;;0.20;99.90;;;;;;2602909;54;20787;31
2022/03/09 00:23:12;;;;;;;71.77;38.87;;;0.20;99.90;;;;;;2602608;54;20109;31
2022/03/09 00:25:47;;;;;;;74.83;36.83;;;0.20;99.90;;;;;;2602627;54;21025;31
2022/03/09 00:28:25;;;;;;;85.67;42.33;;;0.10;99.90;;;;;;2602555;54;20857;31
2022/03/09 00:31:01;;;;;;;69.20;36.13;;;0.10;99.90;;;;;;2602701;54;20250;31
2022/03/09 00:33:39;;;;;;;81.55;41.45;;;0.00;99.90;;;;;;2601774;54;20023;31
2022/03/09 00:36:14;;;;;;;84.10;41.10;;;0.00;99.90;;;;;;2602994;54;20875;31
2022/03/09 00:38:52;;;;;;;78.13;41.70;;;0.00;99.90;;;;;;2603400;54;20849;31
2022/03/09 00:41:27;;;;;;;82.28;42.85;;;0.00;99.90;;;;;;2603432;54;20279;31
2022/03/09 00:44:05;;;;;;;68.13;36.05;;;0.00;99.90;;;;;;2603466;54;20035;31
2022/03/09 00:46:45;;;;;;;77.28;41.60;;;-0.10;99.90;;;;;;2621776;46;20031;31
2022/03/09 00:49:19;;;;;;;75.38;38.88;;;-0.10;99.90;;;;;;2603269;54;20034;31
2022/03/09 00:51:54;;;;;;;67.05;36.55;;;-0.10;99.90;;;;;;2603424;54;20101;31
2022/03/09 00:54:31;;;;;;;86.13;44.25;;;-0.10;99.90;;;;;;2603330;54;20039;31
2022/03/09 00:57:07;;;;;;;78.82;41.50;;;-0.10;99.90;;;;;;2603326;54;20915;31
2022/03/09 00:59:47;;;;;;;78.70;42.80;;;-0.20;99.90;;;;;;2603335;54;20050;31
2022/03/09 01:02:22;;;;;;;78.25;41.60;;;-0.20;99.90;;;;;;2602659;54;20770;31
2022/03/09 01:05:00;;;;;;;69.03;35.13;;;-0.20;99.90;;;;;;2603068;54;20053;31
2022/03/09 01:07:35;;;;;;;81.15;40.30;;;-0.20;99.90;;;;;;2621983;46;20027;31
2022/03/09 01:10:13;;;;;;;82.10;42.63;;;-0.20;99.90;;;;;;2603197;54;20048;31
2022/03/09 01:12:49;;;;;;;83.60;41.95;;;-0.30;99.90;;;;;;2603412;54;22599;31
2022/03/09 01:15:28;;;;;;;76.13;39.40;;;-0.30;99.90;;;;;;2603475;54;20030;31
2022/03/09 01:18:04;;;;;;;82.50;41.63;;;-0.30;99.90;;;;;;2602595;54;20029;31
2022/03/09 01:20:40;;;;;;;74.85;38.25;;;-0.40;99.90;;;;;;2603276;54;20780;31
2022/03/09 01:23:17;;;;;;;78.80;41.30;;;-0.30;99.90;;;;;;2621477;46;20097;31
2022/03/09 01:25:53;;;;;;;89.85;41.55;;;-0.40;99.90;;;;;;2603252;54;20030;31
2022/03/09 01:28:27;;;;;;;79.82;40.78;;;-0.40;99.90;;;;;;2622020;46;20031;31
2022/03/09 01:31:06;;;;;;;79.85;42.08;;;-0.40;99.90;;;;;;2603251;54;20954;31
2022/03/09 01:33:41;;;;;;;69.27;34.70;;;-0.40;99.90;;;;;;2603418;54;21021;31
2022/03/09 01:36:17;;;;;;;77.80;39.73;;;-0.40;99.90;;;;;;2603005;54;20794;31
2022/03/09 01:38:55;;;;;;;70.65;35.92;;;-0.40;99.90;;;;;;2603507;54;21121;31
2022/03/09 01:41:30;;;;;;;74.30;37.35;;;-0.40;99.90;;;;;;2603362;54;20753;31
2022/03/09 01:44:09;;;;;;;74.32;37.17;;;-0.50;99.90;;;;;;2603351;54;20581;31
2022/03/09 01:46:49;;;;;;;52.55;28.20;;;-0.40;99.90;;;;;;2603370;54;20053;31
2022/03/09 01:49:25;;;;;;;60.53;28.92;;;-0.40;99.90;;;;;;2603083;54;20030;31
2022/03/09 01:52:00;;;;;;;67.00;31.88;;;-0.50;99.90;;;;;;2603249;54;20035;31
2022/03/09 01:54:36;;;;;;;64.75;35.20;;;-0.40;99.90;;;;;;2621679;46;20034;31
2022/03/09 01:57:11;;;;;;;70.40;36.10;;;-0.30;99.90;;;;;;2621874;46;20929;31
2022/03/09 01:59:47;;;;;;;67.90;34.00;;;-0.40;99.90;;;;;;2621884;46;20053;31
2022/03/09 02:02:25;;;;;;;66.45;31.95;;;-0.40;99.90;;;;;;2621515;46;20030;31
2022/03/09 02:05:01;;;;;;;62.90;33.50;;;-0.50;99.90;;;;;;2603172;54;20099;31
2022/03/09 02:10:24;;;;;;;61.58;31.13;;;-0.50;99.90;;;;;;2603253;54;20298;31
2022/03/09 02:12:59;;;;;;;66.25;33.05;;;-0.50;99.90;;;;;;2603236;54;20031;31
2022/03/09 02:15:34;;;;;;;64.38;32.95;;;-0.50;99.90;;;;;;2602437;54;20998;31
2022/03/09 02:18:12;;;;;;;61.88;32.47;;;-0.50;99.90;;;;;;2603206;54;20910;31
2022/03/09 02:20:48;;;;;;;67.60;34.05;;;-0.60;99.90;;;;;;2603142;54;20030;31
2022/03/09 02:23:25;;;;;;;60.95;29.80;;;-0.60;99.90;;;;;;2603100;54;20057;31
2022/03/09 02:26:01;;;;;;;60.07;31.43;;;-0.60;99.90;;;;;;2603202;54;20851;31
2022/03/09 02:28:41;;;;;;;61.75;30.40;;;-0.70;99.90;;;;;;2615257;46;20250;31
2022/03/09 02:31:16;;;;;;;56.40;26.48;;;-0.80;99.90;;;;;;2603045;54;20026;31
2022/03/09 02:33:53;;;;;;;57.55;30.85;;;-0.70;99.90;;;;;;2700899;39;20513;31
2022/03/09 02:36:30;;;;;;;62.88;32.40;;;-0.80;99.90;;;;;;2603313;54;20057;31
2022/03/09 02:39:09;;;;;;;60.45;29.02;;;-0.80;99.90;;;;;;2621149;46;20109;31
2022/03/09 02:41:48;;;;;;;63.45;34.70;;;-0.80;99.90;;;;;;2603227;54;20026;31
2022/03/09 02:44:24;;;;;;;60.55;32.05;;;-0.80;99.90;;;;;;2602956;54;20030;31
2022/03/09 02:46:58;;;;;;;62.20;32.42;;;-0.90;99.90;;;;;;2603261;54;20902;31
2022/03/09 02:49:35;;;;;;;69.03;35.17;;;-0.90;99.90;;;;;;2602722;54;20034;31
2022/03/09 02:52:11;;;;;;;65.90;34.33;;;-1.00;99.90;;;;;;2603263;54;20032;31
2022/03/09 02:54:50;;;;;;;59.65;32.60;;;-1.00;99.90;;;;;;2603108;54;20034;31
2022/03/09 02:57:27;;;;;;;64.57;32.45;;;-1.10;99.90;;;;;;2621688;46;20060;31
2022/03/09 03:00:03;;;;;;;61.45;30.40;;;-1.10;99.90;;;;;;2714366;39;20479;31
2022/03/09 03:02:43;;;;;;;53.38;26.83;;;-1.10;99.90;;;;;;2602344;54;20076;31
2022/03/09 03:05:18;;;;;;;61.55;30.52;;;-1.20;99.90;;;;;;2603125;54;20105;31
2022/03/09 03:07:58;;;;;;;56.88;28.92;;;-1.20;99.90;;;;;;2602913;54;20033;31
2022/03/09 03:10:41;;;;;;;58.30;30.35;;;-1.20;99.90;;;;;;2602855;54;20115;31
2022/03/09 03:13:18;;;;;;;57.58;28.02;;;-1.10;99.90;;;;;;2621422;46;21056;31
2022/03/09 03:15:56;;;;;;;53.80;27.70;;;-1.20;99.90;;;;;;2602903;54;20064;31
2022/03/09 03:18:34;;;;;;;54.55;28.45;;;-1.20;99.90;;;;;;2603145;54;20026;31
2022/03/09 03:21:15;;;;;;;52.05;26.40;;;-1.20;99.90;;;;;;2602755;54;20961;31
2022/03/09 03:23:51;;;;;;;55.60;25.95;;;-1.20;99.90;;;;;;2602917;54;20955;31
2022/03/09 03:26:36;;;;;;;54.22;27.05;;;-1.20;99.90;;;;;;2602647;54;20026;31
2022/03/09 03:31:46;;;;;;;51.22;26.70;;;-1.20;99.90;;;;;;2621305;46;20026;31
2022/03/09 03:34:27;;;;;;;49.78;25.17;;;-1.10;99.90;;;;;;2601969;54;20030;31
2022/03/09 03:37:03;;;;;;;48.60;25.50;;;-1.20;99.90;;;;;;2602994;54;20031;31
2022/03/09 03:39:38;;;;;;;;;;;-1.20;99.90;;;;;;2603050;54;20467;31
2022/03/09 03:42:17;;;;;;;46.92;24.70;;;-1.20;99.90;;;;;;2621316;46;20389;31
2022/03/09 03:44:54;;;;;;;51.90;25.95;;;-1.20;99.90;;;;;;2602769;54;20052;31
2022/03/09 03:47:28;;;;;;;53.25;25.77;;;-1.20;99.90;;;;;;2602837;54;20922;31
2022/03/09 03:50:03;;;;;;;49.05;25.77;;;-1.20;99.90;;;;;;2602744;54;20870;31
2022/03/09 03:52:41;;;;;;;58.03;29.13;;;-1.10;99.90;;;;;;2602794;54;20026;31
2022/03/09 03:55:16;;;;;;;56.10;28.98;;;-1.20;99.90;;;;;;2603033;54;20877;31
2022/03/09 03:57:55;;;;;;;57.70;29.60;;;-1.30;99.90;;;;;;2621199;46;20684;31
2022/03/09 04:00:30;;;;;;;56.03;28.03;;;-1.30;99.90;;;;;;2602618;54;20141;31
2022/03/09 04:03:10;;;;;;;53.53;28.08;;;-1.30;99.90;;;;;;2602846;54;20038;31
2022/03/09 04:05:46;;;;;;;53.45;26.75;;;-1.30;99.90;;;;;;2602304;54;20037;31
2022/03/09 04:08:22;;;;;;;51.90;26.90;;;-1.40;99.90;;;;;;2701555;39;20579;31
2022/03/09 04:11:00;;;;;;;53.58;26.63;;;-1.40;99.90;;;;;;2602414;54;20057;31
2022/03/09 04:13:38;;;;;;;52.03;25.53;;;-1.40;99.90;;;;;;2612477;46;20940;31
2022/03/09 04:16:14;;;;;;;50.77;25.67;;;-1.40;99.90;;;;;;2602948;54;20390;31
2022/03/09 04:18:49;;;;;;;48.58;25.38;;;-1.40;99.90;;;;;;2602606;54;20053;31
2022/03/09 04:21:28;;;;;;;53.90;25.33;;;-1.40;99.90;;;;;;2621203;46;20878;31
2022/03/09 04:24:05;;;;;;;43.72;25.13;;;-1.40;99.90;;;;;;2602954;54;21116;31
2022/03/09 04:26:43;;;;;;;47.20;24.20;;;-1.40;99.90;;;;;;2602187;54;21155;31
2022/03/09 04:29:29;;;;;;;49.00;23.73;;;-1.40;99.90;;;;;;2602828;54;21070;31
2022/03/09 04:32:05;;;;;;;47.30;24.47;;;-1.30;99.90;;;;;;2602804;54;20268;31
2022/03/09 04:34:40;;;;;;;52.78;24.63;;;-1.30;99.90;;;;;;2621269;47;20234;31
2022/03/09 04:37:16;;;;;;;48.95;24.00;;;-1.30;99.90;;;;;;2602856;54;20026;31
2022/03/09 04:39:53;;;;;;;41.80;23.40;;;-1.30;99.90;;;;;;2602604;54;20594;31
2022/03/09 04:42:27;;;;;;;43.50;22.40;;;-1.20;99.90;;;;;;2602811;54;20026;31
2022/03/09 04:45:08;;;;;;;51.40;23.30;;;-1.20;99.90;;;;;;2602893;54;20034;31
2022/03/09 04:47:46;;;;;;;52.07;22.83;;;-1.20;99.90;;;;;;2602738;54;20031;31
2022/03/09 04:50:23;;;;;;;48.30;23.88;;;-1.10;99.90;;;;;;2621537;47;20238;31
2022/03/09 04:53:00;;;;;;;44.17;22.17;;;-1.10;99.90;;;;;;2602569;54;20031;31
2022/03/09 04:55:36;;;;;;;41.05;21.48;;;-1.10;99.90;;;;;;2602753;54;20039;31
2022/03/09 04:58:12;;;;;;;40.95;21.55;;;-1.00;99.90;;;;;;2602412;54;20724;31
2022/03/09 05:00:51;;;;;;;40.03;20.70;;;-1.00;99.90;;;;;;2602807;54;20888;31
2022/03/09 05:03:27;;;;;;;42.60;20.88;;;-1.00;99.90;;;;;;2602585;54;20771;31
2022/03/09 05:06:02;;;;;;;35.92;20.10;;;-0.90;99.90;;;;;;2620939;47;22299;31
2022/03/09 05:08:44;;;;;;;38.38;20.70;;;-0.90;99.90;;;;;;2602565;54;20750;31
2022/03/09 05:11:20;;;;;;;38.80;19.95;;;-0.90;99.90;;;;;;2601717;54;20026;31
2022/03/09 05:13:59;;;;;;;35.10;20.10;;;-0.90;99.90;;;;;;2602603;54;20772;31
2022/03/09 05:16:36;;;;;;;37.60;20.20;;;-0.80;99.90;;;;;;2602721;54;22413;31
2022/03/09 05:19:12;;;;;;;34.15;17.55;;;-0.80;99.90;;;;;;2602290;54;20924;31
2022/03/09 05:21:48;;;;;;;37.90;20.97;;;-0.70;99.90;;;;;;2602743;54;20846;31
2022/03/09 05:24:45;;;;;;;41.63;21.73;;;-0.70;99.90;;;;;;2603452;54;20026;31
2022/03/09 05:27:21;;;;;;;40.60;20.67;;;-0.70;99.90;;;;;;2603415;54;20866;31
2022/03/09 05:30:02;;;;;;;35.87;21.10;;;-0.70;99.90;;;;;;2621860;46;21083;31
2022/03/09 05:32:41;;;;;;;41.97;21.17;;;-0.60;99.90;;;;;;2602628;54;20953;31
2022/03/09 05:35:16;;;;;;;39.35;20.67;;;-0.60;99.90;;;;;;2602617;54;20061;31
2022/03/09 05:37:53;;;;;;;37.90;20.37;;;-0.60;99.90;;;;;;2603389;54;20034;31
2022/03/09 05:40:29;;;;;;;43.50;19.80;;;-0.60;99.90;;;;;;2603221;54;20274;31
2022/03/09 05:43:06;;;;;;;40.55;19.80;;;-0.60;99.90;;;;;;2603222;54;20117;31
2022/03/09 05:45:42;;;;;;;44.95;21.70;;;-0.50;99.90;;;;;;2621782;46;20031;31
2022/03/09 05:48:20;;;;;;;44.38;20.60;;;-0.50;99.90;;;;;;2603446;54;20887;31
2022/03/09 05:50:58;;;;;;;49.63;22.15;;;-0.50;99.90;;;;;;2602898;54;20026;31
2022/03/09 05:53:33;;;;;;;51.93;22.83;;;-0.50;99.90;;;;;;2603110;54;20030;31
2022/03/09 05:56:09;;;;;;;51.15;21.75;;;-0.50;99.90;;;;;;2621485;46;20759;31
2022/03/09 05:58:44;;;;;;;65.07;25.40;;;-0.40;99.90;;;;;;2603275;54;22450;31
2022/03/09 06:01:20;;;;;;;61.43;25.33;;;-0.30;99.90;;;;;;2603099;54;20086;31
2022/03/09 06:04:02;;;;;;;68.85;25.85;;;-0.30;99.90;;;;;;2602617;54;20253;31
2022/03/09 06:06:37;;;;;;;76.55;27.73;;;-0.20;99.90;;;;;;2602246;54;20758;31
2022/03/09 06:09:12;;;;;;;88.13;30.20;;;-0.20;99.90;;;;;;2603089;54;20077;31
2022/03/09 06:11:48;;;;;;;104.03;30.00;;;-0.20;99.90;;;;;;2621598;46;20026;31
2022/03/09 06:14:22;;;;;;;82.20;29.10;;;-0.20;99.90;;;;;;2621321;46;20864;31
2022/03/09 06:16:56;;;;;;;93.80;30.03;;;-0.10;99.90;;;;;;2621456;46;22411;31
2022/03/09 06:19:35;;;;;;;89.53;30.15;;;-0.10;99.90;;;;;;2602974;54;20030;31
2022/03/09 06:22:09;;;;;;;81.95;27.80;;;0.00;99.90;;;;;;2603072;54;20146;31
2022/03/09 06:24:44;;;;;;;84.50;29.30;;;0.10;99.90;;;;;;2621604;46;20034;31
2022/03/09 06:27:23;;;;;;;80.07;26.97;;;0.10;99.90;;;;;;2701315;39;20505;31
2022/03/09 06:30:02;;;;;;;82.90;29.10;;;0.10;99.90;;;;;;2621493;46;22404;31
2022/03/09 06:32:38;;;;;;;83.32;28.52;;;0.20;99.90;;;;;;2607610;46;20870;31
2022/03/09 06:35:14;;;;;;;71.95;26.83;;;0.20;99.90;;;;;;2603182;54;20585;31
2022/03/09 06:37:54;;;;;;;75.07;27.88;;;0.30;99.90;;;;;;2602942;54;20919;31
2022/03/09 06:40:32;;;;;;;76.88;27.33;;;0.30;99.90;;;;;;2603079;54;20861;31
2022/03/09 06:43:11;;;;;;;96.10;31.30;;;0.40;99.90;;;;;;2701296;39;20470;31
2022/03/09 06:45:46;;;;;;;96.67;30.23;;;0.60;99.90;;;;;;2603001;54;20849;31
2022/03/09 06:48:22;;;;;;;100.10;32.20;;;0.80;99.90;;;;;;2602520;54;20289;31
2022/03/09 06:50:57;;;;;;;87.13;28.00;;;1.20;99.90;;;;;;2603238;54;20042;31
2022/03/09 06:53:36;;;;;;;63.60;22.02;;;1.70;99.90;;;;;;2620907;46;20101;31
2022/03/09 06:56:13;;;;;;;37.28;19.10;;;2.10;99.90;;;;;;2603109;54;20026;31
2022/03/09 06:58:49;;;;;;;37.35;19.10;;;2.80;99.90;;;;;;2603047;54;20030;31
2022/03/09 07:01:25;;;;;;;32.83;18.50;;;3.60;99.90;;;;;;2602872;54;20042;31
2022/03/09 07:04:03;;;;;;;33.60;17.10;;;4.20;99.90;;;;;;2602762;54;20053;31
2022/03/09 07:09:17;;;;;;;31.83;15.53;;;5.80;99.90;;;;;;2602850;54;20925;31
2022/03/09 07:11:54;;;;;;;33.38;16.23;;;6.40;99.90;;;;;;2621302;46;20254;31
2022/03/09 07:14:32;;;;;;;29.60;17.35;;;7.00;99.90;;;;;;2621279;46;20032;31
2022/03/09 07:17:09;;;;;;;36.00;18.43;;;7.50;99.90;;;;;;2602744;54;20026;31
2022/03/09 07:19:45;;;;;;;31.15;18.65;;;7.90;99.90;;;;;;2602919;54;20791;31
2022/03/09 07:22:21;;;;;;;31.98;19.45;;;8.10;99.90;;;;;;2602757;54;20057;31
2022/03/09 07:25:04;;;;;;;32.60;18.60;;;8.30;99.90;;;;;;2602690;54;20898;31
2022/03/09 07:27:39;;;;;;;35.05;18.92;;;8.50;99.90;;;;;;2621337;46;20030;31
2022/03/09 07:30:22;;;;;;;47.10;18.73;;;8.60;99.90;;;;;;2602791;54;20062;31
2022/03/09 07:32:58;;;;;;;31.25;19.10;;;8.90;99.90;;;;;;2621112;46;20038;31
2022/03/09 07:35:34;;;;;;;33.70;17.90;;;9.10;99.90;;;;;;2701229;39;21328;31
2022/03/09 07:38:10;;;;;;;30.27;17.52;;;9.30;99.90;;;;;;2602591;54;20855;31
2022/03/09 07:40:48;;;;;;;;;;;9.60;99.90;;;;;;2621176;46;20026;31
2022/03/09 07:43:24;;;;;;;28.15;17.15;;;9.70;99.90;;;;;;2602531;54;20520;31
2022/03/09 07:46:06;;;;;;;28.20;17.40;;;10.10;99.90;;;;;;2602580;54;20038;31
2022/03/09 07:48:42;;;;;;;33.33;20.20;;;10.30;99.90;;;;;;2602414;54;20861;31
2022/03/09 07:51:18;;;;;;;37.22;23.00;;;10.40;99.90;;;;;;2602274;54;20273;31
2022/03/09 07:53:55;;;;;;;31.43;20.40;;;10.50;99.90;;;;;;2602429;54;20046;31
2022/03/09 07:56:41;;;;;;;28.50;18.30;;;10.60;99.90;;;;;;2602667;54;20765;31
2022/03/09 07:59:16;;;;;;;27.50;19.57;;;10.90;99.90;;;;;;2602416;54;20034;31
2022/03/09 08:01:55;;;;;;;25.30;16.80;;;11.10;99.90;;;;;;2602019;54;20033;31
2022/03/09 08:04:31;;;;;;;27.10;15.20;;;11.20;99.90;;;;;;2602750;54;20026;31
2022/03/09 08:07:08;;;;;;;26.80;15.88;;;11.40;99.90;;;;;;2602687;54;20033;31
2022/03/09 08:09:47;;;;;;;25.25;14.63;;;11.50;99.90;;;;;;2602528;54;20023;31
2022/03/09 08:12:28;;;;;;;22.77;14.40;;;11.70;99.90;;;;;;2602774;54;20916;31
2022/03/09 08:15:09;;;;;;;20.55;13.88;;;11.80;99.90;;;;;;2602545;54;20092;31
2022/03/09 08:17:45;;;;;;;23.50;13.17;;;12.00;99.30;;;;;;2605708;46;20589;31
2022/03/09 08:20:21;;;;;;;23.88;15.00;;;12.20;98.50;;;;;;2602691;54;20026;31
2022/03/09 08:23:04;;;;;;;21.33;14.37;;;12.20;97.20;;;;;;2602607;54;20022;31
2022/03/09 08:25:39;;;;;;;24.25;12.90;;;12.40;97.40;;;;;;2620925;46;21155;31
2022/03/09 08:28:18;;;;;;;21.30;12.40;;;12.60;96.50;;;;;;2602539;54;20864;31
2022/03/09 08:30:55;;;;;;;24.02;12.35;;;12.70;95.20;;;;;;2602640;54;20933;31
2022/03/09 08:33:30;;;;;;;21.55;12.35;;;12.90;95.20;;;;;;2601796;54;20030;31
2022/03/09 08:36:06;;;;;;;21.07;12.90;;;13.00;93.70;;;;;;2602444;54;20086;31
2022/03/09 08:38:47;;;;;;;21.25;12.82;;;13.10;93.40;;;;;;2602514;54;20026;31
2022/03/09 08:41:25;;;;;;;21.70;11.95;;;13.10;92.50;;;;;;2602457;54;20098;31
2022/03/09 08:44:04;;;;;;;16.50;11.07;;;13.10;92.10;;;;;;2601720;54;20030;31
2022/03/09 08:46:39;;;;;;;15.25;10.10;;;13.20;90.90;;;;;;2602436;54;20026;31
2022/03/09 08:49:17;;;;;;;16.70;10.73;;;13.30;90.90;;;;;;2620791;47;20030;31
2022/03/09 08:51:52;;;;;;;16.23;11.30;;;13.40;90.00;;;;;;2601858;54;20859;31
2022/03/09 08:54:29;;;;;;;18.40;11.93;;;13.40;90.10;;;;;;2616353;47;20030;31
2022/03/09 08:57:07;;;;;;;15.50;11.00;;;13.40;89.40;;;;;;2602980;54;20026;31
2022/03/09 08:59:49;;;;;;;20.17;11.30;;;13.50;89.30;;;;;;2603568;54;20033;31
2022/03/09 09:02:24;;;;;;;15.40;10.60;;;13.60;87.60;;;;;;2603434;54;20858;31
2022/03/09 09:05:00;;;;;;;17.50;10.07;;;13.80;88.50;;;;;;2602772;54;20290;31
2022/03/09 09:07:36;;;;;;;15.38;10.25;;;13.60;86.50;;;;;;2603488;54;20030;31
2022/03/09 09:10:12;;;;;;;18.83;10.80;;;13.70;88.00;;;;;;2603492;54;20085;31
2022/03/09 09:12:50;;;;;;;17.37;10.10;;;13.80;87.90;;;;;;2617954;46;20045;31
2022/03/09 09:15:30;;;;;;;16.38;11.73;;;13.90;87.50;;;;;;2621810;46;22626;31
2022/03/09 09:18:07;;;;;;;17.10;10.43;;;14.10;86.70;;;;;;2621912;46;20031;31
2022/03/09 09:21:03;;;;;;;15.68;11.38;;;14.20;87.30;;;;;;2603301;54;20031;31
2022/03/09 09:23:41;;;;;;;16.27;10.18;;;14.10;86.70;;;;;;2603434;54;20735;31
2022/03/09 09:26:19;;;;;;;19.73;8.30;;;14.20;85.30;;;;;;2603244;54;20848;31
2022/03/09 09:29:13;;;;;;;12.77;9.15;;;14.10;83.20;;;;;;2603399;54;20753;31
2022/03/09 09:31:56;;;;;;;16.00;8.85;;;13.80;82.70;;;;;;2603405;54;20030;31
2022/03/09 09:34:32;;;;;;;13.65;8.57;;;13.70;83.40;;;;;;2603573;54;20866;31
2022/03/09 09:39:40;;;;;;;11.55;8.35;;;13.70;83.40;;;;;;2602657;54;20033;31
2022/03/09 09:42:16;;;;;;;13.45;9.15;;;13.60;84.00;;;;;;2603460;54;20752;31
2022/03/09 09:45:13;;;;;;;13.73;9.02;;;13.70;84.80;;;;;;2603299;54;20042;31
2022/03/09 09:47:55;;;;;;;11.82;8.40;;;13.80;83.10;;;;;;2603516;54;20755;31
2022/03/09 09:50:31;;;;;;;26.35;9.60;;;13.80;81.80;;;;;;2621678;46;20089;31
2022/03/09 09:53:07;;;;;;;12.77;7.73;;;13.60;82.50;;;;;;2603210;54;20033;31
2022/03/09 09:55:45;;;;;;;13.82;9.43;;;13.70;85.30;;;;;;2603382;54;21073;31
2022/03/09 09:58:19;;;;;;;12.05;8.80;;;13.50;82.60;;;;;;2603469;54;20735;31
2022/03/09 10:00:55;;;;;;;42.25;9.65;;;13.40;82.50;;;;;;2603325;54;20027;31
2022/03/09 10:03:34;;;;;;;11.13;8.15;;;13.10;81.20;;;;;;2603217;54;20026;31
2022/03/09 10:06:12;;;;;;;11.85;7.55;;;12.80;83.30;;;;;;2603081;54;20169;31
2022/03/09 10:09:01;;;;;;;17.23;8.90;;;12.60;82.90;;;;;;2701191;39;21400;31
2022/03/09 10:11:49;;;;;;;11.57;7.77;;;12.60;84.50;;;;;;2621512;46;20026;31
2022/03/09 10:14:24;;;;;;;12.38;7.65;;;12.40;83.40;;;;;;2701573;39;21322;31
2022/03/09 10:17:06;;;;;;;13.05;7.57;;;12.20;84.80;;;;;;2602750;54;20828;31
2022/03/09 10:19:47;;;;;;;10.60;7.20;;;12.20;85.20;;;;;;2602999;54;20880;31
2022/03/09 10:22:27;;;;;;;14.17;9.17;;;12.10;84.00;;;;;;2603172;54;20026;31
2022/03/09 10:25:27;;;;;;;10.40;7.22;;;12.10;83.60;;;;;;2603060;54;21182;31
2022/03/09 10:28:03;;;;;;;11.60;8.18;;;12.20;84.10;;;;;;2791217;31;20608;31
2022/03/09 10:30:39;;;;;;;;;;;12.40;84.30;;;;;;2602797;54;20980;31
2022/03/09 10:33:19;;;;;;;11.15;7.53;;;12.30;82.80;;;;;;2602417;54;20779;31
2022/03/09 10:35:57;;;;;;;10.80;7.75;;;12.40;84.30;;;;;;2603065;54;20910;31
2022/03/09 10:38:37;;;;;;;11.30;7.40;;;12.40;84.30;;;;;;2621567;46;20503;31
2022/03/09 10:41:14;;;;;;;11.40;7.50;;;12.40;83.70;;;;;;2603039;54;20901;31
2022/03/09 10:43:50;;;;;;;;;;;12.30;83.20;;;;;;2603153;54;20026;31
2022/03/09 10:46:27;;;;;;;11.77;7.27;;;12.40;83.30;;;;;;2602705;54;19941;31
2022/03/09 10:49:03;;;;;;;10.25;7.13;;;12.30;82.70;;;;;;2701208;39;20501;31
2022/03/09 10:51:46;;;;;;;12.38;7.88;;;12.30;81.00;;;;;;2602150;54;20022;31
2022/03/09 10:54:27;;;;;;;10.87;7.60;;;12.20;82.10;;;;;;2607312;46;20890;31
2022/03/09 10:57:08;;;;;;;11.23;8.07;;;12.20;81.50;;;;;;2602676;54;20117;31
2022/03/09 10:59:53;;;;;;;14.52;8.00;;;12.30;81.70;;;;;;2602874;54;20981;31
2022/03/09 11:02:39;;;;;;;14.93;7.07;;;12.20;82.80;;;;;;2602963;54;20765;31
2022/03/09 11:05:20;;;;;;;11.20;7.40;;;12.10;78.90;;;;;;2602696;54;20019;31
2022/03/09 11:08:09;;;;;;;12.57;7.23;;;12.00;81.30;;;;;;2601892;54;20026;31
2022/03/09 11:10:52;;;;;;;12.55;7.75;;;11.90;81.00;;;;;;2602250;54;20238;31
2022/03/09 11:13:31;;;;;;;9.35;6.60;;;11.90;81.60;;;;;;2601534;54;20094;31
2022/03/09 11:16:11;;;;;;;10.65;7.70;;;11.90;79.00;;;;;;2601697;54;20910;31
2022/03/09 11:18:50;;;;;;;12.93;8.33;;;11.80;80.90;;;;;;2602112;54;20023;31
2022/03/09 11:21:30;;;;;;;14.67;9.63;;;11.70;81.80;;;;;;2602733;54;20027;31
2022/03/09 11:24:04;;;;;;;13.10;8.85;;;11.80;83.30;;;;;;2621157;46;20057;31
2022/03/09 11:26:46;;;;;;;11.20;7.40;;;11.60;82.70;;;;;;2602157;54;20813;31
2022/03/09 11:29:42;;;;;;;12.02;8.80;;;11.50;81.20;;;;;;2602798;54;20081;31
2022/03/09 11:32:38;;;;;;;18.15;9.00;;;11.40;82.90;;;;;;2602654;54;20899;31
2022/03/09 11:35:41;;;;;;;16.40;10.50;;;11.30;82.60;;;;;;2602714;54;20057;31
2022/03/09 11:38:40;;;;;;;13.55;9.18;;;11.30;83.90;;;;;;2602319;54;20049;31
2022/03/09 11:41:15;;;;;;;13.88;8.25;;;11.20;84.00;;;;;;2602608;54;20861;31
2022/03/09 11:43:53;;;;;;;14.70;8.95;;;11.10;83.30;;;;;;2620628;46;20962;31
2022/03/09 11:46:49;;;;;;;11.95;9.00;;;11.00;85.30;;;;;;2602811;54;20910;31
2022/03/09 11:49:36;;;;;;;12.23;8.70;;;11.00;86.30;;;;;;2602514;54;20030;31
2022/03/09 11:52:15;;;;;;;13.85;8.45;;;11.10;86.70;;;;;;2602604;54;20061;31
2022/03/09 11:54:52;;;;;;;13.02;8.13;;;11.10;83.40;;;;;;2602514;54;20081;31
2022/03/09 11:57:29;;;;;;;14.98;8.98;;;11.00;83.20;;;;;;2602632;54;20088;31
2022/03/09 12:00:13;;;;;;;13.50;9.17;;;11.00;83.10;;;;;;2621492;46;20056;31
2022/03/09 12:02:51;;;;;;;14.75;8.70;;;10.90;83.70;;;;;;2602594;54;20889;31
2022/03/09 12:05:28;;;;;;;;;;;10.90;83.80;;;;;;2615452;46;21693;31
2022/03/09 12:08:03;;;;;;;11.98;8.13;;;10.90;82.00;;;;;;2616603;46;20808;31
2022/03/09 12:10:50;;;;;;;11.40;7.90;;;10.90;82.10;;;;;;2602551;54;21858;31
2022/03/09 12:13:47;;;;;;;15.05;9.90;;;10.80;82.00;;;;;;2602471;54;20838;31
2022/03/09 12:16:28;;;;;;;14.75;9.13;;;10.80;83.70;;;;;;2602645;54;20034;31
2022/03/09 12:19:13;;;;;;;15.85;9.98;;;10.70;84.00;;;;;;2602447;54;20873;31
2022/03/09 12:22:07;;;;;;;15.57;9.85;;;10.60;84.20;;;;;;2602587;54;20757;31
2022/03/09 12:24:43;;;;;;;13.35;9.38;;;10.60;86.40;;;;;;2719265;39;20567;31
2022/03/09 12:27:30;;;;;;;12.03;8.53;;;10.60;87.60;;;;;;2602416;54;20030;31
2022/03/09 12:30:07;;;;;;;12.03;8.50;;;10.60;84.50;;;;;;2602312;54;20241;31
2022/03/09 12:32:47;;;;;;;11.75;8.50;;;10.60;85.60;;;;;;2601247;54;20879;31
2022/03/09 12:37:57;;;;;;;11.30;8.43;;;10.50;84.70;;;;;;2602386;54;20030;31
2022/03/09 12:40:37;;;;;;;10.48;8.35;;;10.50;84.90;;;;;;2700122;39;21440;31
2022/03/09 12:43:13;;;;;;;10.57;8.00;;;10.40;84.50;;;;;;2601644;54;20092;31
2022/03/09 12:45:56;;;;;;;12.13;8.30;;;10.40;84.20;;;;;;2602316;54;20030;31
2022/03/09 12:48:35;;;;;;;14.93;9.07;;;10.40;84.80;;;;;;2602310;54;20138;31
2022/03/09 12:51:12;;;;;;;12.55;8.23;;;10.40;85.10;;;;;;2602069;54;20870;31
2022/03/09 12:54:06;;;;;;;11.10;8.45;;;10.50;85.80;;;;;;2620899;47;20060;31
2022/03/09 12:56:41;;;;;;;13.05;9.25;;;10.50;85.60;;;;;;2602348;54;20168;31
2022/03/09 12:59:20;;;;;;;13.03;8.73;;;10.50;83.60;;;;;;2700768;39;20509;31
2022/03/09 13:01:58;;;;;;;11.00;7.83;;;10.50;82.70;;;;;;2601493;54;20030;31
2022/03/09 13:04:37;;;;;;;13.05;8.75;;;10.50;82.70;;;;;;2601371;54;20607;31
2022/03/09 13:07:14;;;;;;;14.68;8.63;;;10.40;83.20;;;;;;2608945;47;20035;31
2022/03/09 13:09:49;;;;;;;43.40;10.20;;;10.50;82.50;;;;;;2601306;54;20779;31
2022/03/09 13:12:26;;;;;;;15.98;8.23;;;10.40;82.60;;;;;;2615418;47;20038;31
2022/03/09 13:15:05;;;;;;;13.83;8.83;;;10.30;82.10;;;;;;2602213;54;20905;31
2022/03/09 13:18:01;;;;;;;12.57;9.05;;;10.30;82.80;;;;;;2602293;54;20908;31
2022/03/09 13:20:42;;;;;;;11.55;8.70;;;10.20;83.00;;;;;;2601402;54;20776;31
2022/03/09 13:23:30;;;;;;;13.55;8.55;;;10.10;82.80;;;;;;2719228;39;20462;31
2022/03/09 13:26:04;;;;;;;12.13;8.50;;;10.10;83.30;;;;;;2602202;54;20022;31
2022/03/09 13:28:42;;;;;;;13.55;9.25;;;10.20;83.60;;;;;;2601414;54;20926;31
2022/03/09 13:31:20;;;;;;;13.32;8.75;;;10.20;82.70;;;;;;2790296;31;20622;31
2022/03/09 13:33:55;;;;;;;14.13;9.13;;;10.20;83.00;;;;;;2620932;47;20873;31
2022/03/09 13:36:35;;;;;;;11.70;8.30;;;10.20;83.10;;;;;;2602321;54;20029;31
2022/03/09 13:39:09;;;;;;;14.55;9.75;;;10.30;82.00;;;;;;2601436;54;20247;31
2022/03/09 13:41:47;;;;;;;14.93;9.67;;;10.10;83.70;;;;;;2601266;54;20925;31
2022/03/09 13:44:29;;;;;;;14.27;9.60;;;10.10;83.70;;;;;;2602377;54;20042;31
2022/03/09 13:47:06;;;;;;;17.35;9.85;;;10.10;84.70;;;;;;2603000;54;20327;31
2022/03/09 13:49:45;;;;;;;13.63;9.07;;;10.10;84.70;;;;;;2602943;54;20026;31
2022/03/09 13:52:31;;;;;;;10.95;7.18;;;10.10;84.00;;;;;;2602101;54;20855;31
2022/03/09 13:55:08;;;;;;;10.70;7.30;;;10.10;81.20;;;;;;2602953;54;20802;31